sensor_id;sensor_type;location;lat;lon;timestamp;pressure;altitude;pressure_sealevel;temperature;humidity
83308;BME280;73223;48.584;13.460;2023-11-21T00:01:05;96368.84;;;4.91;100.00
83308;BME280;73223;48.584;13.460;2023-11-21T00:03:33;96364.97;;;5.18;100.00
83308;BME280;73223;48.584;13.460;2023-11-21T00:05:59;96361.88;;;5.45;100.00
83308;BME280;73223;48.584;13.460;2023-11-21T00:08:25;96368.81;;;5.42;100.00
83308;BME280;73223;48.584;13.460;2023-11-21T00:10:50;96373.66;;;5.09;100.00
83308;BME280;73223;48.584;13.460;2023-11-21T00:13:16;96378.81;;;5.08;100.00
83308;BME280;73223;48.584;13.460;2023-11-21T00:15:42;96365.63;;;5.28;100.00
83308;BME280;73223;48.584;13.460;2023-11-21T00:18:08;96362.19;;;5.29;100.00
83308;BME280;73223;48.584;13.460;2023-11-21T00:20:33;96356.38;;;5.19;100.00
83308;BME280;73223;48.584;13.460;2023-11-21T00:22:59;96356.72;;;4.99;100.00
83308;BME280;73223;48.584;13.460;2023-11-21T00:25:24;96357.81;;;4.84;100.00
83308;BME280;73223;48.584;13.460;2023-11-21T00:27:50;96361.88;;;4.99;100.00
83308;BME280;73223;48.584;13.460;2023-11-21T00:30:15;96354.38;;;5.36;100.00
83308;BME280;73223;48.584;13.460;2023-11-21T00:32:41;96348.56;;;5.23;100.00
83308;BME280;73223;48.584;13.460;2023-11-21T00:35:06;96352.22;;;5.12;100.00
83308;BME280;73223;48.584;13.460;2023-11-21T00:37:32;96361.19;;;5.37;100.00
83308;BME280;73223;48.584;13.460;2023-11-21T00:39:58;96346.31;;;5.54;100.00
83308;BME280;73223;48.584;13.460;2023-11-21T00:42:23;96352.84;;;5.24;100.00
83308;BME280;73223;48.584;13.460;2023-11-21T00:44:48;96354.91;;;5.53;100.00
83308;BME280;73223;48.584;13.460;2023-11-21T00:47:14;96355.03;;;5.46;100.00
83308;BME280;73223;48.584;13.460;2023-11-21T00:49:39;96352.59;;;5.38;100.00
83308;BME280;73223;48.584;13.460;2023-11-21T00:52:05;96351.94;;;5.27;100.00
83308;BME280;73223;48.584;13.460;2023-11-21T00:54:30;96359.69;;;5.24;100.00
83308;BME280;73223;48.584;13.460;2023-11-21T00:56:55;96345.19;;;5.21;100.00
83308;BME280;73223;48.584;13.460;2023-11-21T00:59:22;96355.47;;;5.21;100.00
83308;BME280;73223;48.584;13.460;2023-11-21T01:01:48;96365.88;;;5.15;100.00
83308;BME280;73223;48.584;13.460;2023-11-21T01:04:13;96362.63;;;5.03;100.00
83308;BME280;73223;48.584;13.460;2023-11-21T01:06:38;96367.34;;;4.78;100.00
83308;BME280;73223;48.584;13.460;2023-11-21T01:09:04;96367.66;;;4.58;100.00
83308;BME280;73223;48.584;13.460;2023-11-21T01:11:33;96371.56;;;4.25;100.00
83308;BME280;73223;48.584;13.460;2023-11-21T01:14:01;96366.22;;;4.39;100.00
83308;BME280;73223;48.584;13.460;2023-11-21T01:16:28;96370.69;;;4.26;100.00
83308;BME280;73223;48.584;13.460;2023-11-21T01:18:53;96358.16;;;4.65;100.00
83308;BME280;73223;48.584;13.460;2023-11-21T01:21:19;96359.84;;;4.66;100.00
83308;BME280;73223;48.584;13.460;2023-11-21T01:23:44;96354.66;;;4.67;100.00
83308;BME280;73223;48.584;13.460;2023-11-21T01:26:09;96366.91;;;4.48;100.00
83308;BME280;73223;48.584;13.460;2023-11-21T01:28:34;96363.28;;;4.65;100.00
83308;BME280;73223;48.584;13.460;2023-11-21T01:31:00;96364.22;;;4.59;100.00
83308;BME280;73223;48.584;13.460;2023-11-21T01:33:25;96363.41;;;4.56;100.00
83308;BME280;73223;48.584;13.460;2023-11-21T01:35:51;96360.56;;;4.72;100.00
83308;BME280;73223;48.584;13.460;2023-11-21T01:38:19;96360.22;;;4.95;100.00
83308;BME280;73223;48.584;13.460;2023-11-21T01:40:45;96348.16;;;5.00;100.00
83308;BME280;73223;48.584;13.460;2023-11-21T01:43:10;96347.06;;;5.13;100.00
83308;BME280;73223;48.584;13.460;2023-11-21T01:45:35;96343.81;;;4.50;100.00
83308;BME280;73223;48.584;13.460;2023-11-21T01:48:01;96350.19;;;4.80;100.00
83308;BME280;73223;48.584;13.460;2023-11-21T01:50:27;96350.84;;;4.93;100.00
83308;BME280;73223;48.584;13.460;2023-11-21T01:52:53;96344.56;;;5.09;100.00
83308;BME280;73223;48.584;13.460;2023-11-21T01:55:19;96351.81;;;4.84;100.00
83308;BME280;73223;48.584;13.460;2023-11-21T01:57:45;96355.03;;;4.98;100.00
83308;BME280;73223;48.584;13.460;2023-11-21T02:00:11;96350.59;;;5.06;100.00
83308;BME280;73223;48.584;13.460;2023-11-21T02:02:48;96356.25;;;4.76;100.00
83308;BME280;73223;48.584;13.460;2023-11-21T02:05:17;96356.91;;;4.87;100.00
83308;BME280;73223;48.584;13.460;2023-11-21T02:07:49;96352.09;;;4.67;100.00
83308;BME280;73223;48.584;13.460;2023-11-21T02:10:15;96359.47;;;4.87;100.00
83308;BME280;73223;48.584;13.460;2023-11-21T02:12:44;96350.03;;;4.89;100.00
83308;BME280;73223;48.584;13.460;2023-11-21T02:15:13;96354.31;;;4.88;100.00
83308;BME280;73223;48.584;13.460;2023-11-21T02:17:48;96348.34;;;4.88;100.00
83308;BME280;73223;48.584;13.460;2023-11-21T02:20:17;96351.03;;;4.82;100.00
83308;BME280;73223;48.584;13.460;2023-11-21T02:22:44;96355.09;;;4.94;100.00
83308;BME280;73223;48.584;13.460;2023-11-21T02:25:10;96343.34;;;5.30;100.00
83308;BME280;73223;48.584;13.460;2023-11-21T02:27:36;96344.22;;;5.29;100.00
83308;BME280;73223;48.584;13.460;2023-11-21T02:30:01;96337.34;;;5.29;100.00
83308;BME280;73223;48.584;13.460;2023-11-21T02:32:29;96329.78;;;5.20;100.00
83308;BME280;73223;48.584;13.460;2023-11-21T02:34:56;96335.50;;;5.37;100.00
83308;BME280;73223;48.584;13.460;2023-11-21T02:37:25;96343.31;;;5.31;100.00
83308;BME280;73223;48.584;13.460;2023-11-21T02:39:51;96335.91;;;5.59;100.00
83308;BME280;73223;48.584;13.460;2023-11-21T02:42:16;96332.78;;;5.45;100.00
83308;BME280;73223;48.584;13.460;2023-11-21T02:44:41;96331.81;;;5.50;100.00
83308;BME280;73223;48.584;13.460;2023-11-21T02:47:06;96331.59;;;5.61;100.00
83308;BME280;73223;48.584;13.460;2023-11-21T02:49:32;96329.91;;;5.60;100.00
83308;BME280;73223;48.584;13.460;2023-11-21T02:51:59;96323.38;;;5.44;100.00
83308;BME280;73223;48.584;13.460;2023-11-21T02:54:26;96322.47;;;5.46;100.00
83308;BME280;73223;48.584;13.460;2023-11-21T02:56:52;96320.53;;;5.56;100.00
83308;BME280;73223;48.584;13.460;2023-11-21T02:59:17;96322.69;;;5.36;100.00
83308;BME280;73223;48.584;13.460;2023-11-21T03:01:43;96323.53;;;5.36;100.00
83308;BME280;73223;48.584;13.460;2023-11-21T03:04:08;96323.56;;;5.35;100.00
83308;BME280;73223;48.584;13.460;2023-11-21T03:06:33;96330.47;;;5.31;100.00
83308;BME280;73223;48.584;13.460;2023-11-21T03:08:59;96321.22;;;5.21;100.00
83308;BME280;73223;48.584;13.460;2023-11-21T03:11:24;96329.66;;;5.28;100.00
83308;BME280;73223;48.584;13.460;2023-11-21T03:13:49;96331.53;;;5.19;100.00
83308;BME280;73223;48.584;13.460;2023-11-21T03:16:15;96322.00;;;5.24;100.00
83308;BME280;73223;48.584;13.460;2023-11-21T03:18:41;96320.38;;;5.20;100.00
83308;BME280;73223;48.584;13.460;2023-11-21T03:21:07;96322.06;;;5.21;100.00
83308;BME280;73223;48.584;13.460;2023-11-21T03:23:35;96314.44;;;5.18;100.00
83308;BME280;73223;48.584;13.460;2023-11-21T03:26:02;96315.13;;;5.27;100.00
83308;BME280;73223;48.584;13.460;2023-11-21T03:28:27;96313.47;;;5.22;100.00
83308;BME280;73223;48.584;13.460;2023-11-21T03:30:53;96310.50;;;5.44;100.00
83308;BME280;73223;48.584;13.460;2023-11-21T03:33:18;96313.66;;;5.13;100.00
83308;BME280;73223;48.584;13.460;2023-11-21T03:35:44;96309.06;;;5.31;100.00
83308;BME280;73223;48.584;13.460;2023-11-21T03:38:09;96312.72;;;5.19;100.00
83308;BME280;73223;48.584;13.460;2023-11-21T03:40:35;96317.38;;;5.43;100.00
83308;BME280;73223;48.584;13.460;2023-11-21T03:43:00;96315.69;;;5.41;100.00
83308;BME280;73223;48.584;13.460;2023-11-21T03:45:26;96312.25;;;5.42;100.00
83308;BME280;73223;48.584;13.460;2023-11-21T03:47:51;96312.78;;;5.59;100.00
83308;BME280;73223;48.584;13.460;2023-11-21T03:50:16;96308.75;;;5.46;100.00
83308;BME280;73223;48.584;13.460;2023-11-21T03:52:41;96310.69;;;5.78;100.00
83308;BME280;73223;48.584;13.460;2023-11-21T03:55:08;96315.72;;;5.84;100.00
83308;BME280;73223;48.584;13.460;2023-11-21T03:57:33;96316.13;;;5.63;100.00
83308;BME280;73223;48.584;13.460;2023-11-21T03:59:58;96318.88;;;5.55;100.00
83308;BME280;73223;48.584;13.460;2023-11-21T04:02:24;96318.28;;;5.41;100.00
83308;BME280;73223;48.584;13.460;2023-11-21T04:04:51;96324.19;;;5.46;100.00
83308;BME280;73223;48.584;13.460;2023-11-21T04:07:16;96315.81;;;5.78;100.00
83308;BME280;73223;48.584;13.460;2023-11-21T04:09:42;96325.28;;;5.76;100.00
83308;BME280;73223;48.584;13.460;2023-11-21T04:12:08;96325.53;;;5.64;100.00
83308;BME280;73223;48.584;13.460;2023-11-21T04:14:34;96324.31;;;5.83;100.00
83308;BME280;73223;48.584;13.460;2023-11-21T04:17:00;96317.50;;;5.80;100.00
83308;BME280;73223;48.584;13.460;2023-11-21T04:19:25;96320.16;;;5.76;100.00
83308;BME280;73223;48.584;13.460;2023-11-21T04:21:50;96315.19;;;5.68;100.00
83308;BME280;73223;48.584;13.460;2023-11-21T04:24:16;96303.63;;;5.46;100.00
83308;BME280;73223;48.584;13.460;2023-11-21T04:26:41;96311.88;;;5.18;100.00
83308;BME280;73223;48.584;13.460;2023-11-21T04:29:06;96312.97;;;5.50;100.00
83308;BME280;73223;48.584;13.460;2023-11-21T04:31:32;96317.09;;;5.57;100.00
83308;BME280;73223;48.584;13.460;2023-11-21T04:33:57;96311.94;;;5.58;100.00
83308;BME280;73223;48.584;13.460;2023-11-21T04:36:22;96312.94;;;5.51;100.00
83308;BME280;73223;48.584;13.460;2023-11-21T04:38:48;96312.63;;;5.67;100.00
83308;BME280;73223;48.584;13.460;2023-11-21T04:41:13;96310.81;;;5.72;100.00
83308;BME280;73223;48.584;13.460;2023-11-21T04:43:38;96320.31;;;5.68;100.00
83308;BME280;73223;48.584;13.460;2023-11-21T04:46:04;96313.28;;;5.76;100.00
83308;BME280;73223;48.584;13.460;2023-11-21T04:48:29;96321.56;;;5.92;100.00
83308;BME280;73223;48.584;13.460;2023-11-21T04:50:54;96317.19;;;5.54;100.00
83308;BME280;73223;48.584;13.460;2023-11-21T04:53:19;96316.88;;;5.69;100.00
83308;BME280;73223;48.584;13.460;2023-11-21T04:55:45;96313.97;;;5.86;100.00
83308;BME280;73223;48.584;13.460;2023-11-21T04:58:11;96310.94;;;5.66;100.00
83308;BME280;73223;48.584;13.460;2023-11-21T05:00:37;96315.66;;;5.44;100.00
83308;BME280;73223;48.584;13.460;2023-11-21T05:03:02;96314.13;;;5.77;100.00
83308;BME280;73223;48.584;13.460;2023-11-21T05:05:29;96310.41;;;5.91;100.00
83308;BME280;73223;48.584;13.460;2023-11-21T05:07:55;96321.75;;;5.81;100.00
83308;BME280;73223;48.584;13.460;2023-11-21T05:10:21;96317.09;;;6.02;100.00
83308;BME280;73223;48.584;13.460;2023-11-21T05:12:47;96324.56;;;6.12;100.00
83308;BME280;73223;48.584;13.460;2023-11-21T05:15:14;96318.22;;;5.87;100.00
83308;BME280;73223;48.584;13.460;2023-11-21T05:17:40;96318.53;;;5.72;100.00
83308;BME280;73223;48.584;13.460;2023-11-21T05:20:10;96320.31;;;6.10;100.00
83308;BME280;73223;48.584;13.460;2023-11-21T05:22:36;96316.75;;;6.17;100.00
83308;BME280;73223;48.584;13.460;2023-11-21T05:25:02;96324.19;;;6.29;100.00
83308;BME280;73223;48.584;13.460;2023-11-21T05:27:28;96331.63;;;6.03;100.00
83308;BME280;73223;48.584;13.460;2023-11-21T05:29:54;96323.44;;;5.84;100.00
83308;BME280;73223;48.584;13.460;2023-11-21T05:32:20;96327.53;;;5.94;100.00
83308;BME280;73223;48.584;13.460;2023-11-21T05:34:45;96318.06;;;5.95;100.00
83308;BME280;73223;48.584;13.460;2023-11-21T05:37:10;96325.03;;;5.91;100.00
83308;BME280;73223;48.584;13.460;2023-11-21T05:39:35;96325.72;;;5.98;100.00
83308;BME280;73223;48.584;13.460;2023-11-21T05:42:01;96321.63;;;6.27;100.00
83308;BME280;73223;48.584;13.460;2023-11-21T05:44:26;96319.19;;;6.23;100.00
83308;BME280;73223;48.584;13.460;2023-11-21T05:46:51;96324.53;;;6.14;100.00
83308;BME280;73223;48.584;13.460;2023-11-21T05:49:17;96327.19;;;6.09;100.00
83308;BME280;73223;48.584;13.460;2023-11-21T05:51:42;96328.72;;;6.18;100.00
83308;BME280;73223;48.584;13.460;2023-11-21T05:54:08;96325.94;;;6.27;100.00
83308;BME280;73223;48.584;13.460;2023-11-21T05:56:33;96334.41;;;6.32;100.00
83308;BME280;73223;48.584;13.460;2023-11-21T05:58:58;96319.03;;;6.29;100.00
83308;BME280;73223;48.584;13.460;2023-11-21T06:01:25;96329.03;;;6.43;100.00
83308;BME280;73223;48.584;13.460;2023-11-21T06:03:53;96320.66;;;6.33;100.00
83308;BME280;73223;48.584;13.460;2023-11-21T06:06:18;96320.63;;;6.35;100.00
83308;BME280;73223;48.584;13.460;2023-11-21T06:08:44;96332.59;;;5.97;100.00
83308;BME280;73223;48.584;13.460;2023-11-21T06:11:09;96333.69;;;5.85;100.00
83308;BME280;73223;48.584;13.460;2023-11-21T06:13:36;96323.50;;;5.79;100.00
83308;BME280;73223;48.584;13.460;2023-11-21T06:16:01;96323.72;;;5.70;100.00
83308;BME280;73223;48.584;13.460;2023-11-21T06:18:27;96323.81;;;5.64;100.00
83308;BME280;73223;48.584;13.460;2023-11-21T06:20:52;96332.25;;;5.72;100.00
83308;BME280;73223;48.584;13.460;2023-11-21T06:23:18;96334.25;;;5.56;100.00
83308;BME280;73223;48.584;13.460;2023-11-21T06:25:43;96335.31;;;5.46;100.00
83308;BME280;73223;48.584;13.460;2023-11-21T06:28:09;96335.94;;;5.57;100.00
83308;BME280;73223;48.584;13.460;2023-11-21T06:30:34;96339.97;;;5.72;100.00
83308;BME280;73223;48.584;13.460;2023-11-21T06:32:59;96345.63;;;5.89;100.00
83308;BME280;73223;48.584;13.460;2023-11-21T06:35:25;96347.38;;;5.87;100.00
83308;BME280;73223;48.584;13.460;2023-11-21T06:37:52;96344.88;;;6.26;100.00
83308;BME280;73223;48.584;13.460;2023-11-21T06:40:18;96347.09;;;6.41;100.00
83308;BME280;73223;48.584;13.460;2023-11-21T06:42:44;96348.66;;;6.47;100.00
83308;BME280;73223;48.584;13.460;2023-11-21T06:45:09;96351.06;;;6.16;100.00
83308;BME280;73223;48.584;13.460;2023-11-21T06:47:36;96349.41;;;6.13;100.00
83308;BME280;73223;48.584;13.460;2023-11-21T06:50:02;96351.06;;;6.16;100.00
83308;BME280;73223;48.584;13.460;2023-11-21T06:52:29;96360.53;;;6.14;100.00
83308;BME280;73223;48.584;13.460;2023-11-21T06:54:54;96364.84;;;6.52;100.00
83308;BME280;73223;48.584;13.460;2023-11-21T06:57:19;96368.63;;;6.37;100.00
83308;BME280;73223;48.584;13.460;2023-11-21T06:59:45;96380.63;;;6.38;100.00
83308;BME280;73223;48.584;13.460;2023-11-21T07:02:10;96378.09;;;6.35;100.00
83308;BME280;73223;48.584;13.460;2023-11-21T07:04:36;96378.81;;;6.43;100.00
83308;BME280;73223;48.584;13.460;2023-11-21T07:07:05;96386.25;;;6.55;100.00
83308;BME280;73223;48.584;13.460;2023-11-21T07:09:32;96386.84;;;6.67;100.00
83308;BME280;73223;48.584;13.460;2023-11-21T07:11:57;96387.34;;;6.81;100.00
83308;BME280;73223;48.584;13.460;2023-11-21T07:14:23;96383.38;;;6.68;100.00
83308;BME280;73223;48.584;13.460;2023-11-21T07:16:48;96387.81;;;6.63;100.00
83308;BME280;73223;48.584;13.460;2023-11-21T07:19:14;96397.88;;;6.72;100.00
83308;BME280;73223;48.584;13.460;2023-11-21T07:21:40;96397.28;;;6.97;100.00
83308;BME280;73223;48.584;13.460;2023-11-21T07:24:06;96405.78;;;7.01;100.00
83308;BME280;73223;48.584;13.460;2023-11-21T07:26:33;96404.00;;;7.03;100.00
83308;BME280;73223;48.584;13.460;2023-11-21T07:28:59;96398.88;;;6.65;100.00
83308;BME280;73223;48.584;13.460;2023-11-21T07:31:25;96404.00;;;6.66;100.00
83308;BME280;73223;48.584;13.460;2023-11-21T07:33:51;96408.72;;;6.86;100.00
83308;BME280;73223;48.584;13.460;2023-11-21T07:36:17;96405.53;;;6.75;100.00
83308;BME280;73223;48.584;13.460;2023-11-21T07:38:48;96400.66;;;7.00;100.00
83308;BME280;73223;48.584;13.460;2023-11-21T07:41:14;96408.66;;;7.24;100.00
83308;BME280;73223;48.584;13.460;2023-11-21T07:43:46;96407.28;;;7.10;100.00
83308;BME280;73223;48.584;13.460;2023-11-21T07:46:12;96407.38;;;7.07;100.00
83308;BME280;73223;48.584;13.460;2023-11-21T07:48:41;96404.03;;;7.02;100.00
83308;BME280;73223;48.584;13.460;2023-11-21T07:51:07;96405.03;;;6.97;100.00
83308;BME280;73223;48.584;13.460;2023-11-21T07:53:33;96417.63;;;7.08;100.00
83308;BME280;73223;48.584;13.460;2023-11-21T07:56:03;96411.50;;;7.14;100.00
83308;BME280;73223;48.584;13.460;2023-11-21T07:58:29;96413.28;;;7.10;100.00
83308;BME280;73223;48.584;13.460;2023-11-21T08:00:54;96416.50;;;7.18;100.00
83308;BME280;73223;48.584;13.460;2023-11-21T08:03:19;96407.88;;;6.85;100.00
83308;BME280;73223;48.584;13.460;2023-11-21T08:05:46;96412.31;;;6.79;100.00
83308;BME280;73223;48.584;13.460;2023-11-21T08:08:11;96419.88;;;7.22;100.00
83308;BME280;73223;48.584;13.460;2023-11-21T08:10:36;96416.72;;;7.11;100.00
83308;BME280;73223;48.584;13.460;2023-11-21T08:13:02;96419.22;;;7.14;100.00
83308;BME280;73223;48.584;13.460;2023-11-21T08:15:29;96415.59;;;7.55;100.00
83308;BME280;73223;48.584;13.460;2023-11-21T08:17:54;96412.66;;;7.35;100.00
83308;BME280;73223;48.584;13.460;2023-11-21T08:20:19;96415.88;;;7.44;100.00
83308;BME280;73223;48.584;13.460;2023-11-21T08:22:45;96412.56;;;7.39;100.00
83308;BME280;73223;48.584;13.460;2023-11-21T08:25:10;96413.53;;;7.69;100.00
83308;BME280;73223;48.584;13.460;2023-11-21T08:27:37;96401.59;;;7.65;100.00
83308;BME280;73223;48.584;13.460;2023-11-21T08:30:03;96402.72;;;7.87;100.00
83308;BME280;73223;48.584;13.460;2023-11-21T08:32:29;96400.44;;;8.06;100.00
83308;BME280;73223;48.584;13.460;2023-11-21T08:34:55;96407.31;;;7.76;100.00
83308;BME280;73223;48.584;13.460;2023-11-21T08:37:20;96410.13;;;7.99;100.00
83308;BME280;73223;48.584;13.460;2023-11-21T08:39:47;96403.25;;;7.98;100.00
83308;BME280;73223;48.584;13.460;2023-11-21T08:42:13;96416.75;;;7.77;100.00
83308;BME280;73223;48.584;13.460;2023-11-21T08:44:39;96411.22;;;7.89;100.00
83308;BME280;73223;48.584;13.460;2023-11-21T08:47:05;96409.34;;;7.65;100.00
83308;BME280;73223;48.584;13.460;2023-11-21T08:49:30;96417.50;;;7.48;100.00
83308;BME280;73223;48.584;13.460;2023-11-21T08:51:55;96421.66;;;7.18;100.00
83308;BME280;73223;48.584;13.460;2023-11-21T08:54:22;96421.34;;;7.32;100.00
83308;BME280;73223;48.584;13.460;2023-11-21T08:56:48;96410.19;;;7.65;100.00
83308;BME280;73223;48.584;13.460;2023-11-21T08:59:13;96421.66;;;7.86;100.00
83308;BME280;73223;48.584;13.460;2023-11-21T09:01:39;96422.84;;;8.06;100.00
83308;BME280;73223;48.584;13.460;2023-11-21T09:04:05;96425.56;;;8.32;100.00
83308;BME280;73223;48.584;13.460;2023-11-21T09:06:30;96420.84;;;8.46;100.00
83308;BME280;73223;48.584;13.460;2023-11-21T09:08:55;96421.34;;;8.59;100.00
83308;BME280;73223;48.584;13.460;2023-11-21T09:11:20;96421.78;;;8.73;100.00
83308;BME280;73223;48.584;13.460;2023-11-21T09:13:46;96430.72;;;8.91;100.00
83308;BME280;73223;48.584;13.460;2023-11-21T09:16:12;96429.72;;;8.95;100.00
83308;BME280;73223;48.584;13.460;2023-11-21T09:18:38;96425.22;;;9.00;100.00
83308;BME280;73223;48.584;13.460;2023-11-21T09:21:03;96426.66;;;8.82;100.00
83308;BME280;73223;48.584;13.460;2023-11-21T09:23:29;96430.09;;;8.24;100.00
83308;BME280;73223;48.584;13.460;2023-11-21T09:25:54;96435.13;;;8.27;100.00
83308;BME280;73223;48.584;13.460;2023-11-21T09:28:22;96443.84;;;8.55;100.00
83308;BME280;73223;48.584;13.460;2023-11-21T09:30:47;96438.38;;;8.64;100.00
83308;BME280;73223;48.584;13.460;2023-11-21T09:33:14;96441.69;;;8.69;100.00
83308;BME280;73223;48.584;13.460;2023-11-21T09:35:40;96446.56;;;8.79;100.00
83308;BME280;73223;48.584;13.460;2023-11-21T09:38:05;96449.28;;;8.45;100.00
83308;BME280;73223;48.584;13.460;2023-11-21T09:40:35;96448.03;;;8.59;100.00
83308;BME280;73223;48.584;13.460;2023-11-21T09:43:02;96452.69;;;8.76;100.00
83308;BME280;73223;48.584;13.460;2023-11-21T09:45:34;96449.84;;;8.56;100.00
83308;BME280;73223;48.584;13.460;2023-11-21T09:48:00;96457.00;;;8.76;100.00
83308;BME280;73223;48.584;13.460;2023-11-21T09:50:26;96457.75;;;8.79;100.00
83308;BME280;73223;48.584;13.460;2023-11-21T09:52:57;96451.13;;;8.70;100.00
83308;BME280;73223;48.584;13.460;2023-11-21T09:55:26;96449.59;;;8.93;100.00
83308;BME280;73223;48.584;13.460;2023-11-21T09:57:56;96448.25;;;8.80;100.00
83308;BME280;73223;48.584;13.460;2023-11-21T10:00:22;96440.19;;;8.90;100.00
83308;BME280;73223;48.584;13.460;2023-11-21T10:02:49;96440.38;;;9.12;100.00
83308;BME280;73223;48.584;13.460;2023-11-21T10:05:16;96441.41;;;9.07;100.00
83308;BME280;73223;48.584;13.460;2023-11-21T10:07:43;96443.75;;;9.14;100.00
83308;BME280;73223;48.584;13.460;2023-11-21T10:10:10;96441.50;;;9.03;100.00
83308;BME280;73223;48.584;13.460;2023-11-21T10:12:35;96440.84;;;8.97;100.00
83308;BME280;73223;48.584;13.460;2023-11-21T10:15:02;96442.22;;;9.09;100.00
83308;BME280;73223;48.584;13.460;2023-11-21T10:17:31;96440.25;;;9.15;100.00
83308;BME280;73223;48.584;13.460;2023-11-21T10:20:03;96446.91;;;9.24;100.00
83308;BME280;73223;48.584;13.460;2023-11-21T10:22:31;96450.09;;;9.04;100.00
83308;BME280;73223;48.584;13.460;2023-11-21T10:24:56;96449.91;;;9.10;100.00
83308;BME280;73223;48.584;13.460;2023-11-21T10:27:22;96439.03;;;9.27;100.00
83308;BME280;73223;48.584;13.460;2023-11-21T10:29:51;96443.13;;;8.78;100.00
83308;BME280;73223;48.584;13.460;2023-11-21T10:32:16;96443.94;;;8.80;100.00
83308;BME280;73223;48.584;13.460;2023-11-21T10:34:41;96443.75;;;9.14;100.00
83308;BME280;73223;48.584;13.460;2023-11-21T10:37:13;96445.25;;;9.21;100.00
83308;BME280;73223;48.584;13.460;2023-11-21T10:39:39;96437.34;;;9.52;100.00
83308;BME280;73223;48.584;13.460;2023-11-21T10:42:08;96445.38;;;9.69;100.00
83308;BME280;73223;48.584;13.460;2023-11-21T10:44:34;96441.94;;;9.69;100.00
83308;BME280;73223;48.584;13.460;2023-11-21T10:46:59;96445.59;;;9.37;100.00
83308;BME280;73223;48.584;13.460;2023-11-21T10:49:26;96455.16;;;8.79;100.00
83308;BME280;73223;48.584;13.460;2023-11-21T10:51:53;96447.81;;;9.49;100.00
83308;BME280;73223;48.584;13.460;2023-11-21T10:54:23;96443.84;;;9.11;100.00
83308;BME280;73223;48.584;13.460;2023-11-21T10:56:50;96450.22;;;9.27;100.00
83308;BME280;73223;48.584;13.460;2023-11-21T10:59:18;96441.31;;;8.82;100.00
83308;BME280;73223;48.584;13.460;2023-11-21T11:01:46;96442.63;;;9.23;100.00
83308;BME280;73223;48.584;13.460;2023-11-21T11:04:12;96442.88;;;9.42;100.00
83308;BME280;73223;48.584;13.460;2023-11-21T11:06:45;96441.22;;;9.39;100.00
83308;BME280;73223;48.584;13.460;2023-11-21T11:09:13;96426.03;;;9.55;100.00
83308;BME280;73223;48.584;13.460;2023-11-21T11:11:42;96428.19;;;9.42;100.00
83308;BME280;73223;48.584;13.460;2023-11-21T11:14:11;96421.84;;;9.51;100.00
83308;BME280;73223;48.584;13.460;2023-11-21T11:16:39;96422.25;;;9.65;100.00
83308;BME280;73223;48.584;13.460;2023-11-21T11:19:07;96420.41;;;9.93;100.00
83308;BME280;73223;48.584;13.460;2023-11-21T11:21:46;96412.63;;;9.93;100.00
83308;BME280;73223;48.584;13.460;2023-11-21T11:24:23;96419.25;;;10.02;100.00
83308;BME280;73223;48.584;13.460;2023-11-21T11:29:50;96422.69;;;9.78;100.00
83308;BME280;73223;48.584;13.460;2023-11-21T11:32:35;96420.66;;;10.10;100.00
83308;BME280;73223;48.584;13.460;2023-11-21T11:35:19;96412.66;;;10.17;100.00
83308;BME280;73223;48.584;13.460;2023-11-21T11:37:48;96412.94;;;10.09;100.00
83308;BME280;73223;48.584;13.460;2023-11-21T11:40:13;96409.50;;;10.08;100.00
83308;BME280;73223;48.584;13.460;2023-11-21T11:42:38;96410.13;;;10.15;100.00
83308;BME280;73223;48.584;13.460;2023-11-21T11:45:19;96415.47;;;9.10;100.00
83308;BME280;73223;48.584;13.460;2023-11-21T11:47:47;96418.34;;;9.78;100.00
83308;BME280;73223;48.584;13.460;2023-11-21T11:50:13;96412.75;;;9.90;100.00
83308;BME280;73223;48.584;13.460;2023-11-21T11:52:45;96407.41;;;10.20;100.00
83308;BME280;73223;48.584;13.460;2023-11-21T11:55:16;96411.13;;;10.36;100.00
83308;BME280;73223;48.584;13.460;2023-11-21T11:57:49;96400.72;;;10.59;100.00
83308;BME280;73223;48.584;13.460;2023-11-21T12:00:20;96400.63;;;10.16;100.00
83308;BME280;73223;48.584;13.460;2023-11-21T12:02:49;96406.16;;;10.30;100.00
83308;BME280;73223;48.584;13.460;2023-11-21T12:05:16;96410.56;;;10.28;100.00
83308;BME280;73223;48.584;13.460;2023-11-21T12:07:51;96412.13;;;10.07;100.00
83308;BME280;73223;48.584;13.460;2023-11-21T12:10:23;96417.13;;;9.88;100.00
83308;BME280;73223;48.584;13.460;2023-11-21T12:12:51;96412.78;;;10.14;100.00
83308;BME280;73223;48.584;13.460;2023-11-21T12:15:20;96406.13;;;10.06;100.00
83308;BME280;73223;48.584;13.460;2023-11-21T12:17:48;96413.50;;;8.90;100.00
83308;BME280;73223;48.584;13.460;2023-11-21T12:20:23;96403.88;;;9.21;100.00
83308;BME280;73223;48.584;13.460;2023-11-21T12:22:52;96409.75;;;9.26;100.00
83308;BME280;73223;48.584;13.460;2023-11-21T12:25:22;96409.13;;;9.18;100.00
83308;BME280;73223;48.584;13.460;2023-11-21T12:27:49;96412.03;;;9.09;100.00
83308;BME280;73223;48.584;13.460;2023-11-21T12:30:16;96413.13;;;9.28;100.00
83308;BME280;73223;48.584;13.460;2023-11-21T12:32:43;96405.44;;;9.52;100.00
83308;BME280;73223;48.584;13.460;2023-11-21T12:35:09;96418.69;;;9.67;100.00
83308;BME280;73223;48.584;13.460;2023-11-21T12:37:36;96421.69;;;9.30;100.00
83308;BME280;73223;48.584;13.460;2023-11-21T12:40:04;96408.34;;;9.16;100.00
83308;BME280;73223;48.584;13.460;2023-11-21T12:42:30;96421.50;;;9.86;100.00
83308;BME280;73223;48.584;13.460;2023-11-21T12:45:28;96412.53;;;9.96;100.00
83308;BME280;73223;48.584;13.460;2023-11-21T12:48:02;96413.75;;;9.86;100.00
83308;BME280;73223;48.584;13.460;2023-11-21T12:50:32;96423.88;;;9.67;100.00